Weather observations for the past three days for
Le Mars Municipal Airport
Imperial (Metric)
Date Time (cdt) Wind (mph) Vis. (mi.) Weather Sky Cond. Temperature (ºF) Relative Humidity Wind Chill (°F) Heat Index (°F) Pressure Precipitation (in)
Air Dwpt 6 hour altimeter (in) sea level (mb) 1 hr 3 hr 6 hr
Max. Min.
04 18:15 NW 10 G 23 10.00 Mostly Cloudy FEW050 BKN065 BKN075 55.4 30.2 38% 29.72 0.0
04 17:55 NW 17 G 26 10.00 Mostly Cloudy FEW050 FEW060 BKN100 57.2 28.4 33% 29.72 0.0
04 17:35 NW 17 G 28 10.00 Mostly Cloudy FEW070 FEW080 BKN110 57.2 30.2 36% 29.72 0.0
04 17:15 N 18 G 26 10.00 Mostly Cloudy FEW070 SCT080 BKN120 59 30.2 34% 29.7 0.0
04 16:55 NW 20 G 33 10.00 Partly Cloudy SCT120 59 30.2 34% 29.71 0.0
04 16:35 NW 22 G 33 10.00 Partly Cloudy and Breezy SCT120 64.4 30.2 28% 29.69 0.0
04 16:15 NW 14 G 31 10.00 A Few Clouds FEW120 64.4 30.2 28% 29.68 0.0
04 15:55 NW 17 G 29 10.00 Fair CLR 68 30.2 24% 29.67 0.0
04 15:35 NW 21 G 32 10.00 Fair and Breezy CLR 68 30.2 24% 29.66 0.0
04 15:15 NW 22 G 28 10.00 Fair and Breezy CLR 69.8 32 25% 29.65 0.0
04 14:55 NW 23 G 33 10.00 Fair and Breezy CLR 68 30.2 24% 29.65 0.0
04 14:35 NW 20 G 29 10.00 Fair CLR 69.8 30.2 23% 29.64 0.0
04 14:15 NW 22 G 28 10.00 Fair and Breezy CLR 69.8 30.2 23% 29.64 0.0
04 13:55 NW 17 G 25 10.00 Fair CLR 69.8 30.2 23% 29.64 0.0
04 13:35 NW 17 G 29 10.00 Fair CLR 69.8 32 25% 29.63 0.0
04 13:15 NW 21 10.00 Fair and Breezy CLR 69.8 32 25% 29.63 0.0
04 12:55 NW 20 G 25 10.00 Fair CLR 69.8 32 25% 29.62 0.0
04 12:35 N 15 G 29 10.00 Fair CLR 69.8 32 25% 29.62 0.0
04 12:15 N 15 G 22 10.00 Fair CLR 69.8 32 25% 29.62 0.0
04 11:55 N 15 10.00 Fair CLR 69.8 32 25% 29.62 0.0
04 11:35 N 15 G 25 10.00 Fair CLR 69.8 32 25% 29.61 0.0
04 11:15 N 13 G 21 10.00 Fair CLR 68 39.2 35% 29.59 0.0
04 10:55 N 20 10.00 Fair CLR 66.2 39.2 37% 29.58 0.0
04 10:35 N 14 G 23 10.00 Fair CLR 66.2 41 40% 29.58 0.0
04 10:15 NW 16 G 22 10.00 Fair CLR 66.2 42.8 43% 29.58 0.0
04 09:55 NW 15 G 26 10.00 Fair CLR 64.4 42.8 46% 29.57 0.0
04 09:35 NW 17 G 28 10.00 Fair CLR 66.2 42.8 43% 29.56 0.0
04 09:15 NW 17 G 24 10.00 Fair CLR 64.4 41 43% 29.56 0.0
04 08:55 W 15 10.00 Fair CLR 64.4 41 43% 29.55 0.0
04 08:35 SW 9 10.00 Fair CLR 62.6 41 45% 29.55 0.0
04 08:15 S 6 10.00 Fair CLR 59 42.8 55% 29.54 0.0
04 07:55 S 6 10.00 Fair CLR 55.4 41 59% 29.54 0.0
04 07:35 S 6 10.00 Fair CLR 51.8 41 67% 29.55 0.0
04 07:15 S 5 10.00 Fair CLR 48.2 41 76% 47 29.55 0.0
04 06:55 S 9 10.00 Fair CLR 46.4 39.2 76% 42 29.55 0.0
04 06:35 S 9 10.00 Fair CLR 46.4 39.2 76% 42 29.56 0.0
04 06:15 S 6 10.00 Fair CLR 48.2 39.2 71% 46 29.56 0.0
04 05:55 S 5 10.00 Fair CLR 50 39.2 67% 49 29.57 0.0
04 05:35 S 5 10.00 Fair CLR 50 39.2 67% 49 29.57 0.0
04 05:15 S 5 10.00 Mostly Cloudy BKN110 48.2 39.2 71% 47 29.57 0.0
04 04:55 S 5 10.00 Overcast OVC110 51.8 39.2 62% 29.58 0.0
04 04:35 Calm 10.00 Overcast OVC100 48.2 39.2 71% 29.58 0.0
04 04:15 S 6 10.00 Overcast OVC110 48.2 41 76% 46 29.59 0.0
04 03:55 S 3 10.00 Mostly Cloudy BKN110 46.4 41 82% 29.6 0.0
04 03:35 S 6 10.00 A Few Clouds FEW110 46.4 39.2 76% 44 29.6 0.0
04 03:15 Calm 10.00 Fair CLR 48.2 41 76% 29.61 0.0
04 02:55 S 6 10.00 Mostly Cloudy BKN100 48.2 41 76% 46 29.61 0.0
04 02:35 S 5 10.00 Mostly Cloudy BKN100 46.4 42.8 87% 45 29.62 0.0
04 02:15 Calm 10.00 Fair CLR 48.2 39.2 71% 29.62 0.0
04 01:55 Calm 10.00 Fair CLR 50 39.2 67% 29.64 0.0
04 01:35 S 7 10.00 Fair CLR 50 39.2 67% 48 29.65 0.0
04 01:15 Calm 10.00 Fair CLR 48.2 39.2 71% 29.66 0.0
04 00:55 S 3 10.00 Fair CLR 51.8 39.2 62% 29.66 0.0
04 00:35 Calm 10.00 Fair CLR 51.8 39.2 62% 29.67 0.0
04 00:15 S 3 10.00 Fair CLR 50 37.4 62% 29.67 0.0
03 23:55 Calm 10.00 Fair CLR 53.6 37.4 54% 29.68 0.0
03 23:35 Calm 10.00 Fair CLR 53.6 37.4 54% 29.69 0.0
03 23:15 S 3 10.00 Fair CLR 53.6 37.4 54% 29.69 0.0
03 22:55 S 3 10.00 Fair CLR 53.6 39.2 58% 29.71 0.0
03 22:35 Calm 10.00 Fair CLR 53.6 39.2 58% 29.71 0.0
03 22:15 Calm 10.00 Fair CLR 55.4 37.4 51% 29.71 0.0
03 21:55 Calm 10.00 Fair CLR 55.4 37.4 51% 29.71 0.0
03 21:35 Calm 10.00 Fair CLR 57.2 37.4 48% 29.71 0.0
03 21:15 Calm 10.00 Fair CLR 59 37.4 45% 29.72 0.0
03 20:55 S 5 10.00 Fair CLR 62.6 35.6 37% 29.72 0.0
03 20:35 S 3 10.00 Fair CLR 64.4 35.6 34% 29.72 0.0
03 20:15 SW 3 10.00 Fair CLR 66.2 33.8 30% 29.73 0.0
03 19:55 SW 6 10.00 Fair CLR 69.8 32 25% 29.73 0.0
03 19:35 W 6 10.00 Fair CLR 69.8 32 25% 29.74 0.0
03 19:15 W 6 10.00 Fair CLR 71.6 32 23% 29.74 0.0
03 18:55 W 7 G 14 10.00 Fair CLR 71.6 32 23% 29.74 0.0
03 18:35 W 12 10.00 Fair CLR 71.6 33.8 25% 29.75 0.0
03 18:15 W 12 10.00 Fair CLR 73.4 33.8 23% 29.75 0.0
03 17:55 NW 9 G 15 10.00 Fair CLR 73.4 32 22% 29.75 0.0
03 17:35 Vrbl 6 G 16 10.00 Fair CLR 73.4 32 22% 29.76 0.0
03 17:15 NW 12 G 17 10.00 Fair CLR 73.4 32 22% 29.76 0.0
03 16:55 W 13 10.00 Fair CLR 73.4 32 22% 29.76 0.0
03 16:35 Vrbl 7 G 18 10.00 Fair CLR 73.4 33.8 23% 29.77 0.0
03 16:15 W 10 G 17 10.00 Fair CLR 73.4 33.8 23% 29.77 0.0
03 15:55 N 9 G 16 10.00 Fair CLR 73.4 33.8 23% 29.78 0.0
03 15:35 NW 10 G 16 10.00 Fair CLR 73.4 33.8 23% 29.79 0.0
03 15:15 N 9 G 20 10.00 Fair CLR 73.4 33.8 23% 29.8 0.0
03 14:55 NW 14 10.00 Fair CLR 71.6 32 23% 29.81 0.0
03 14:35 NW 13 10.00 Fair CLR 71.6 33.8 25% 29.81 0.0
03 14:15 N 12 10.00 Fair CLR 71.6 32 23% 29.82 0.0
03 13:55 W 8 G 20 10.00 Fair CLR 69.8 33.8 27% 29.82 0.0
03 13:35 NW 15 G 21 10.00 Fair CLR 71.6 33.8 25% 29.83 0.0
03 13:15 NW 17 G 24 10.00 Fair CLR 71.6 33.8 25% 29.84 0.0
03 12:55 N 15 G 25 10.00 Fair CLR 69.8 33.8 27% 29.84 0.0
03 12:35 NW 14 G 25 10.00 Fair CLR 69.8 33.8 27% 29.85 0.0
03 12:15 N 17 G 24 10.00 Fair CLR 69.8 33.8 27% 29.84 0.0
03 11:55 N 16 G 30 10.00 Fair CLR 68 33.8 28% 29.84 0.0
03 11:35 N 20 10.00 Fair CLR 68 33.8 28% 29.84 0.0
03 11:15 N 17 G 26 10.00 Fair CLR 68 35.6 30% 29.84 0.0
03 10:55 N 18 G 29 10.00 Fair CLR 66.2 33.8 30% 29.84 0.0
03 10:35 N 21 10.00 Fair and Breezy CLR 68 35.6 30% 29.83 0.0
03 10:15 N 17 10.00 Fair CLR 66.2 35.6 32% 29.84 0.0
03 09:55 N 18 10.00 Fair CLR 64.4 37.4 37% 29.85 0.0
03 09:35 N 12 G 21 10.00 Fair CLR 62.6 37.4 39% 29.85 0.0
03 09:15 N 14 10.00 Fair CLR 60.8 37.4 42% 29.85 0.0
03 08:55 N 13 10.00 Fair CLR 60.8 37.4 42% 29.84 0.0
03 08:35 N 13 10.00 Fair CLR 57.2 37.4 48% 29.84 0.0
03 08:15 NW 9 G 17 10.00 Fair CLR 57.2 37.4 48% 29.83 0.0
03 07:55 NW 10 G 16 10.00 Fair CLR 55.4 37.4 51% 29.83 0.0
03 07:35 NW 10 10.00 Fair CLR 53.6 37.4 54% 29.82 0.0
03 07:15 NW 9 10.00 Fair CLR 51.8 37.4 58% 29.81 0.0
03 06:55 NW 7 10.00 Fair CLR 51.8 37.4 58% 29.8 0.0
03 06:35 NW 7 10.00 Fair CLR 50 37.4 62% 48 29.79 0.0
03 06:15 NW 6 10.00 Fair CLR 50 35.6 58% 48 29.78 0.0
03 05:55 Calm 10.00 Fair CLR 50 35.6 58% 29.78 0.0
03 05:35 W 7 10.00 Fair CLR 50 33.8 54% 48 29.78 0.0
03 05:15 Calm 10.00 Fair CLR 46.4 33.8 62% 29.77 0.0
03 04:55 Calm 10.00 Fair CLR 48.2 33.8 58% 29.77 0.0
03 04:35 Calm 10.00 A Few Clouds FEW110 48.2 33.8 58% 29.76 0.0
03 04:15 S 6 10.00 Partly Cloudy SCT110 50 32 50% 48 29.76 0.0
03 03:55 S 7 10.00 A Few Clouds FEW110 48.2 32 54% 46 29.76 0.0
03 03:35 S 10 10.00 Fair CLR 51.8 32 47% 29.76 0.0
03 03:15 S 12 10.00 Fair CLR 53.6 32 44% 29.76 0.0
03 02:55 S 7 10.00 Fair CLR 51.8 32 47% 29.77 0.0
03 02:35 S 14 10.00 Fair CLR 51.8 32 47% 29.76 0.0
03 02:15 S 8 10.00 Fair CLR 50 32 50% 47 29.79 0.0
03 01:55 S 7 10.00 Fair CLR 53.6 30.2 41% 29.8 0.0
03 01:35 S 6 10.00 A Few Clouds FEW120 55.4 30.2 38% 29.8 0.0
03 01:15 SE 10 10.00 Mostly Cloudy FEW075 BKN110 57.2 30.2 36% 29.8 0.0
03 00:55 S 8 10.00 Overcast FEW075 BKN095 OVC110 57.2 30.2 36% 29.81 0.0
03 00:35 S 9 10.00 Overcast FEW075 BKN090 OVC110 57.2 30.2 36% 29.81 0.0
03 00:15 S 12 10.00 Partly Cloudy SCT110 57.2 30.2 36% 29.81 0.0
02 23:55 S 12 10.00 Partly Cloudy SCT100 57.2 28.4 33% 29.8 0.0
02 23:35 S 12 10.00 Mostly Cloudy BKN110 55.4 30.2 38% 29.81 0.0
02 23:15 S 12 10.00 Mostly Cloudy FEW080 BKN100 57.2 28.4 33% 29.82 0.0
02 22:55 SE 13 10.00 Overcast OVC110 57.2 30.2 36% 29.82 0.0
02 22:35 S 7 10.00 Mostly Cloudy BKN110 57.2 30.2 36% 29.84 0.0
02 22:15 S 10 10.00 Mostly Cloudy BKN110 57.2 30.2 36% 29.83 0.0
02 21:55 S 10 10.00 Mostly Cloudy BKN110 57.2 30.2 36% 29.84 0.0
02 21:35 S 10 10.00 Partly Cloudy SCT110 57.2 30.2 36% 29.84 0.0
02 21:15 S 9 10.00 Fair CLR 57.2 30.2 36% 29.84 0.0
02 20:55 S 8 10.00 Fair CLR 57.2 30.2 36% 29.85 0.0
02 20:35 S 9 4.00 Fair with Haze CLR 59 30.2 34% 29.85 0.0
02 20:15 S 9 7.00 Fair CLR 60.8 28.4 29% 29.86 0.0
02 19:55 S 10 10.00 Fair CLR 64.4 28.4 26% 29.86 0.0
02 19:35 S 10 G 16 10.00 Fair CLR 66.2 26.6 22% 29.87 0.0
02 19:15 SW 12 G 20 10.00 Fair CLR 68 24.8 20% 29.88 0.0
02 18:55 SW 14 10.00 A Few Clouds FEW120 68 26.6 21% 29.89 0.0
02 18:35 S 12 10.00 Partly Cloudy SCT120 68 26.6 21% 29.9 0.0
02 18:15 SW 10 10.00 Partly Cloudy SCT120 68 26.6 21% 29.92 0.0
02 17:55 SW 10 G 18 9.00 Fair CLR 68 24.8 20% 29.92 0.0
02 17:35 SW 15 10.00 Fair CLR 69.8 26.6 20% 29.92 0.0
02 17:15 SW 10 G 21 10.00 Fair CLR 68 24.8 20% 29.92 0.0
02 16:55 Vrbl 5 G 16 10.00 Fair CLR 68 26.6 21% 29.94 0.0
02 16:35 SW 10 G 16 10.00 Fair CLR 68 26.6 21% 29.96 0.0
02 16:15 SW 12 10.00 Fair CLR 68 26.6 21% 29.97 0.0
02 15:55 SW 9 10.00 Fair CLR 68 28.4 23% 29.97 0.0
02 15:35 S 12 10.00 Fair CLR 66.2 28.4 24% 29.98 0.0
02 15:15 S 9 G 15 10.00 Fair CLR 66.2 26.6 22% 29.99 0.0
02 14:55 SW 10 10.00 Fair CLR 66.2 28.4 24% 30 0.0
02 14:35 W 8 10.00 Fair CLR 66.2 28.4 24% 30.01 0.0
02 14:15 SW 8 G 17 10.00 Fair CLR 64.4 28.4 26% 30.03 0.0
02 13:55 W 10 10.00 Fair CLR 64.4 28.4 26% 30.03 0.0
02 13:35 SW 13 10.00 Fair CLR 64.4 26.6 24% 30.05 0.0
02 13:15 SW 9 G 17 10.00 Fair CLR 64.4 26.6 24% 30.05 0.0
02 12:55 SW 8 G 16 10.00 Fair CLR 62.6 26.6 25% 30.06 0.0
02 12:35 W 12 10.00 Fair CLR 62.6 28.4 27% 30.07 0.0
02 12:15 SW 8 G 14 10.00 Fair CLR 60.8 28.4 29% 30.08 0.0
02 11:55 Vrbl 7 G 17 10.00 Fair CLR 59 28.4 31% 30.09 0.0
02 11:35 W 9 10.00 Fair CLR 59 26.6 29% 30.1 0.0
02 11:15 W 9 10.00 Fair CLR 57.2 26.6 31% 30.1 0.0
02 10:55 SW 9 10.00 Fair CLR 57.2 26.6 31% 30.11 0.0
02 10:35 W 8 10.00 Fair CLR 55.4 26.6 33% 30.11 0.0
02 10:15 SW 10 10.00 Fair CLR 55.4 26.6 33% 30.11 0.0
02 09:55 W 7 G 13 10.00 Fair CLR 53.6 26.6 35% 30.12 0.0
02 09:35 S 7 10.00 Fair CLR 50 33.8 54% 48 30.12 0.0
02 09:15 Vrbl 6 10.00 Fair CLR 48.2 33.8 58% 46 30.13 0.0
02 08:55 S 5 10.00 Fair CLR 44.6 35.6 71% 43 30.13 0.0
02 08:35 S 5 10.00 Fair CLR 41 35.6 81% 38 30.14 0.0
02 08:15 S 3 10.00 Fair CLR 37.4 35.6 93% 30.14 0.0
02 07:55 Calm 10.00 Fair CLR 35.6 35.6 100% 30.14 0.0
02 07:35 Calm 10.00 Fair CLR 33.8 33.8 100% 30.14 0.0
02 07:15 Calm 10.00 Fair CLR 30.2 30.2 100% 30.14 0.0
02 06:55 Calm 6.00 Fog/Mist CLR 30.2 30.2 100% 30.14 0.0
02 06:35 Calm 8.00 Fair CLR 30.2 30.2 100% 30.14 0.0
02 06:15 Calm 10.00 Fair CLR 28.4 28.4 100% 30.13 0.0
02 05:55 Calm 10.00 Fair CLR 28.4 28.4 100% 30.13 0.0
02 05:35 Calm 9.00 Fair CLR 30.2 30.2 100% 30.14 0.0
02 05:15 Calm 9.00 Fair CLR 30.2 30.2 100% 30.14 0.0
02 04:55 Calm 8.00 Fair CLR 30.2 30.2 100% 30.13 0.0
02 04:35 Calm 10.00 Fair CLR 30.2 30.2 100% 30.13 0.0
02 04:15 Calm 10.00 Fair CLR 30.2 30.2 100% 30.13 0.0
02 03:55 Calm 10.00 Fair CLR 30.2 30.2 100% 30.13 0.0
02 03:15 Calm 10.00 Fair CLR 32 32 100% 30.13 0.0
02 02:55 Calm 10.00 Fair CLR 32 32 100% 30.13 0.0
02 02:35 Calm 10.00 Fair CLR 32 32 100% 30.13 0.0
02 02:15 SW 3 10.00 Fair CLR 32 32 100% 30.13 0.0
02 01:55 Calm 10.00 Fair CLR 32 32 100% 30.14 0.0
02 01:35 Calm 10.00 Fair CLR 33.8 33.8 100% 30.14 0.0
02 01:15 Calm 10.00 Fair CLR 33.8 33.8 100% 30.13 0.0
02 00:55 Calm 10.00 Fair CLR 33.8 33.8 100% 30.14 0.0
02 00:35 Calm 10.00 Fair CLR 35.6 35.6 100% 30.14 0.0
02 00:15 Calm 10.00 Fair CLR 35.6 32 87% 30.13 0.0
01 23:55 Calm 10.00 Fair CLR 35.6 32 87% 30.13 0.0
01 23:35 Calm 10.00 Fair CLR 37.4 30.2 75% 30.13 0.0
01 23:15 Calm 10.00 Fair CLR 37.4 32 81% 30.12 0.0
01 22:55 Calm 10.00 Fair CLR 37.4 32 81% 30.12 0.0
01 22:35 Calm 10.00 Fair CLR 39.2 28.4 65% 30.12 0.0
01 22:15 Calm 10.00 Fair CLR 41 28.4 61% 30.12 0.0
01 21:55 N 3 10.00 Fair CLR 44.6 26.6 49% 30.12 0.0
01 21:35 Calm 10.00 Fair CLR 44.6 28.4 53% 30.11 0.0
01 21:15 N 5 10.00 Fair CLR 46.4 26.6 46% 45 30.1 0.0
01 20:55 N 6 10.00 Fair CLR 46.4 24.8 43% 44 30.09 0.0
01 20:15 N 7 10.00 Fair CLR 51.8 23 32% 30.08 0.0
01 19:55 N 8 10.00 Fair CLR 51.8 23 32% 30.08 0.0
01 19:35 N 8 10.00 Fair CLR 53.6 21.2 28% 30.08 0.0
01 19:15 N 8 G 16 10.00 A Few Clouds FEW075 53.6 21.2 28% 30.08 0.0
01 18:55 NW 12 10.00 Fair CLR 53.6 21.2 28% 30.07 0.0
01 18:35 NW 10 10.00 A Few Clouds FEW075 55.4 21.2 26% 30.07 0.0
Date Time (cdt) Wind (mph) Vis. (mi.) Weather Sky Cond. Air Dwpt Max. Min. Relative Humidity Wind Chill (°F) Heat Index (°F) altimeter (in) sea level (mb) 1 hr 3 hr 6 hr
6 hour
Temperature (ºF) Pressure Precipitation (in)